createdAt,value
2018-04-01T00:00:09.841Z,6.60
2018-04-01T00:02:37.065Z,6.50
2018-04-01T00:05:04.967Z,6.40
2018-04-01T00:07:32.019Z,6.40
2018-04-01T00:09:59.902Z,6.20
2018-04-01T00:12:26.995Z,6.20
2018-04-01T00:14:54.054Z,6.20
2018-04-01T00:17:21.070Z,6.10
2018-04-01T00:19:48.625Z,6.10
2018-04-01T00:22:15.639Z,6.00
2018-04-01T00:24:43.805Z,5.80
2018-04-01T00:27:10.880Z,5.80
2018-04-01T00:29:38.394Z,5.80
2018-04-01T00:32:06.450Z,5.80
2018-04-01T00:34:33.495Z,5.80
2018-04-01T00:37:00.501Z,5.80
2018-04-01T00:39:27.560Z,5.70
2018-04-01T00:41:54.615Z,5.60
2018-04-01T00:44:21.721Z,5.60
2018-04-01T00:46:48.737Z,5.50
2018-04-01T00:49:16.065Z,5.40
2018-04-01T00:51:43.840Z,5.30
2018-04-01T00:54:11.859Z,5.20
2018-04-01T00:56:40.806Z,5.10
2018-04-01T00:59:11.799Z,5.00
2018-04-01T01:01:38.825Z,4.90
2018-04-01T01:04:06.710Z,4.80
2018-04-01T01:06:43.960Z,4.70
2018-04-01T01:09:11.061Z,4.60
2018-04-01T01:11:38.843Z,4.60
2018-04-01T01:14:06.642Z,4.80
2018-04-01T01:16:34.242Z,4.70
2018-04-01T01:19:01.835Z,4.90
2018-04-01T01:21:31.544Z,5.10
2018-04-01T01:24:10.482Z,5.20
2018-04-01T01:26:37.667Z,5.20
2018-04-01T01:29:05.553Z,5.40
2018-04-01T01:31:34.637Z,5.40
2018-04-01T01:34:02.198Z,5.40
2018-04-01T01:36:30.974Z,5.50
2018-04-01T01:39:01.533Z,5.50
2018-04-01T01:41:29.538Z,5.60
2018-04-01T01:43:58.793Z,5.60
2018-04-01T01:46:30.766Z,5.60
2018-04-01T01:48:59.791Z,5.70
2018-04-01T01:51:37.631Z,5.70
2018-04-01T01:54:05.562Z,5.70
2018-04-01T01:56:34.545Z,5.70
2018-04-01T01:59:01.875Z,5.80
2018-04-01T02:01:30.685Z,5.80
2018-04-01T02:03:58.224Z,5.80
2018-04-01T02:06:36.201Z,5.80
2018-04-01T02:09:13.511Z,5.80
2018-04-01T02:11:40.521Z,5.90
2018-04-01T02:14:07.537Z,5.90
2018-04-01T02:16:35.538Z,6.00
2018-04-01T02:19:02.665Z,6.00
2018-04-01T02:21:41.919Z,6.10
2018-04-01T02:24:08.965Z,6.10
2018-04-01T02:26:35.990Z,6.10
2018-04-01T02:29:03.002Z,6.20
2018-04-01T02:31:30.147Z,6.20
2018-04-01T02:33:58.571Z,6.30
2018-04-01T02:36:26.000Z,6.30
2018-04-01T02:38:53.290Z,6.40
2018-04-01T02:41:20.579Z,6.40
2018-04-01T02:43:47.790Z,6.40
2018-04-01T02:46:14.834Z,6.50
2018-04-01T02:48:41.838Z,6.50
2018-04-01T02:51:08.871Z,6.50
2018-04-01T02:53:35.882Z,6.50
2018-04-01T02:56:03.491Z,6.60
2018-04-01T02:58:31.901Z,6.60
2018-04-01T03:01:01.563Z,6.60
2018-04-01T03:03:29.173Z,6.60
2018-04-01T03:05:56.834Z,6.60
2018-04-01T03:08:30.284Z,6.70
2018-04-01T03:10:59.861Z,6.70
2018-04-01T03:13:28.576Z,6.70
2018-04-01T03:16:02.058Z,6.70
2018-04-01T03:18:31.548Z,6.70
2018-04-01T03:21:00.384Z,6.70
2018-04-01T03:23:28.886Z,6.60
2018-04-01T03:25:57.083Z,6.60
2018-04-01T03:28:25.890Z,6.50
2018-04-01T03:30:52.999Z,6.40
2018-04-01T03:33:22.033Z,6.20
2018-04-01T03:35:50.315Z,6.10
2018-04-01T03:38:19.832Z,5.90
2018-04-01T03:40:46.989Z,5.90
2018-04-01T03:43:14.170Z,5.90
2018-04-01T03:45:41.177Z,5.80
2018-04-01T03:48:08.231Z,5.90
2018-04-01T03:50:35.493Z,5.90
2018-04-01T03:53:03.334Z,5.80
2018-04-01T03:55:32.024Z,5.80
2018-04-01T03:58:00.830Z,5.70
2018-04-01T04:00:29.812Z,5.70
2018-04-01T04:03:10.354Z,5.70
2018-04-01T04:05:37.372Z,5.70
2018-04-01T04:08:04.377Z,5.70
2018-04-01T04:10:31.534Z,5.60
2018-04-01T04:12:59.404Z,5.60
2018-04-01T04:15:29.574Z,5.60
2018-04-01T04:17:58.228Z,5.60
2018-04-01T04:20:26.374Z,5.60
2018-04-01T04:22:59.136Z,5.60
2018-04-01T04:25:28.013Z,5.70
2018-04-01T04:27:59.198Z,5.70
2018-04-01T04:30:38.537Z,5.70
2018-04-01T04:33:06.634Z,5.60
2018-04-01T04:35:33.762Z,5.70
2018-04-01T04:38:00.883Z,5.70
2018-04-01T04:40:38.497Z,5.70
2018-04-01T04:43:06.266Z,5.70
2018-04-01T04:45:43.241Z,5.80
2018-04-01T04:48:11.752Z,5.90
2018-04-01T04:50:38.754Z,5.90
2018-04-01T04:53:06.112Z,5.90
2018-04-01T04:55:33.694Z,6.00
2018-04-01T04:58:00.922Z,6.00
2018-04-01T05:00:30.112Z,6.00
2018-04-01T05:02:58.735Z,6.10
2018-04-01T05:05:31.277Z,6.10
2018-04-01T05:08:00.801Z,6.10
2018-04-01T05:10:38.700Z,6.10
2018-04-01T05:13:05.724Z,6.10
2018-04-01T05:15:44.397Z,6.10
2018-04-01T05:18:11.523Z,6.10
2018-04-01T05:20:39.401Z,6.20
2018-04-01T05:23:07.197Z,6.10
2018-04-01T05:25:34.413Z,6.10
2018-04-01T05:28:02.690Z,6.10
2018-04-01T05:30:32.469Z,6.10
2018-04-01T05:33:09.879Z,6.10
2018-04-01T05:35:36.889Z,6.10
2018-04-01T05:38:04.013Z,6.10
2018-04-01T05:40:32.268Z,6.10
2018-04-01T05:42:59.965Z,6.10
2018-04-01T05:45:37.688Z,6.00
2018-04-01T05:48:05.213Z,6.00
2018-04-01T05:50:34.355Z,5.90
2018-04-01T05:53:01.749Z,5.90
2018-04-01T05:55:31.166Z,5.80
2018-04-01T05:58:08.197Z,5.70
2018-04-01T06:00:35.212Z,5.60
2018-04-01T06:03:04.286Z,5.50
2018-04-01T06:05:32.228Z,5.50
2018-04-01T06:08:10.537Z,5.50
2018-04-01T06:10:37.537Z,5.50
2018-04-01T06:13:05.325Z,5.60
2018-04-01T06:15:43.174Z,5.60
2018-04-01T06:18:10.287Z,5.60
2018-04-01T06:20:37.298Z,5.60
2018-04-01T06:23:04.872Z,5.60
2018-04-01T06:25:33.149Z,5.60
2018-04-01T06:28:00.913Z,5.70
2018-04-01T06:30:40.744Z,5.60
2018-04-01T06:33:08.646Z,5.70
2018-04-01T06:35:35.649Z,5.60
2018-04-01T06:38:12.640Z,5.70
2018-04-01T06:40:39.744Z,5.70
2018-04-01T06:43:06.852Z,5.80
2018-04-01T06:45:33.877Z,5.80
2018-04-01T06:48:01.010Z,5.80
2018-04-01T06:50:32.019Z,5.80
2018-04-01T06:53:02.531Z,5.80
2018-04-01T06:55:31.713Z,5.80
2018-04-01T06:58:01.762Z,5.90
2018-04-01T07:00:40.848Z,5.90
2018-04-01T07:03:07.973Z,5.90
2018-04-01T07:05:35.753Z,6.10
2018-04-01T07:08:04.335Z,6.10
2018-04-01T07:10:34.292Z,6.10
2018-04-01T07:13:01.421Z,6.20
2018-04-01T07:15:29.330Z,6.30
2018-04-01T07:17:56.825Z,6.30
2018-04-01T07:20:26.265Z,6.30
2018-04-01T07:22:54.530Z,6.20
2018-04-01T07:25:23.016Z,6.30
2018-04-01T07:27:52.280Z,6.30
2018-04-01T07:30:19.366Z,6.30
2018-04-01T07:32:47.714Z,6.20
2018-04-01T07:35:14.738Z,6.20
2018-04-01T07:37:41.767Z,6.20
2018-04-01T07:40:09.561Z,6.20
2018-04-01T07:42:37.380Z,6.20
2018-04-01T07:45:04.405Z,6.20
2018-04-01T07:47:32.332Z,6.40
2018-04-01T07:50:00.335Z,6.50
2018-04-01T07:52:27.547Z,6.40
2018-04-01T07:54:55.960Z,6.60
2018-04-01T07:57:23.042Z,6.80
2018-04-01T07:59:50.144Z,6.90
2018-04-01T08:02:18.035Z,6.90
2018-04-01T08:04:45.163Z,6.90
2018-04-01T08:07:12.941Z,7.90
2018-04-01T08:09:40.013Z,7.90
2018-04-01T08:12:08.127Z,7.20
2018-04-01T08:14:35.166Z,7.20
2018-04-01T08:17:03.248Z,7.10
2018-04-01T08:19:31.181Z,7.10
2018-04-01T08:21:59.214Z,7.10
2018-04-01T08:24:26.601Z,7.10
2018-04-01T08:26:54.897Z,7.70
2018-04-01T08:29:21.932Z,7.70
2018-04-01T08:31:49.805Z,7.90
2018-04-01T08:34:17.678Z,7.90
2018-04-01T08:36:44.662Z,7.80
2018-04-01T08:39:12.532Z,7.40
2018-04-01T08:41:40.311Z,7.20
2018-04-01T08:44:08.102Z,7.00
2018-04-01T08:46:35.150Z,7.00
2018-04-01T08:49:02.996Z,7.00
2018-04-01T08:51:30.708Z,7.00
2018-04-01T08:53:59.255Z,6.90
2018-04-01T08:56:27.884Z,6.90
2018-04-01T08:58:55.177Z,7.00
2018-04-01T09:01:32.108Z,6.90
2018-04-01T09:03:59.209Z,7.00
2018-04-01T09:06:26.989Z,6.90
2018-04-01T09:08:54.776Z,7.00
2018-04-01T09:11:23.780Z,6.90
2018-04-01T09:13:53.586Z,7.10
2018-04-01T09:16:22.382Z,7.10
2018-04-01T09:18:51.875Z,7.10
2018-04-01T09:21:21.779Z,7.10
2018-04-01T09:23:51.308Z,6.90
2018-04-01T09:26:20.660Z,6.90
2018-04-01T09:28:50.437Z,6.80
2018-04-01T09:31:32.204Z,6.80
2018-04-01T09:33:59.994Z,6.80
2018-04-01T09:36:26.996Z,6.70
2018-04-01T09:38:54.976Z,6.90
2018-04-01T09:41:22.582Z,6.90
2018-04-01T09:43:51.369Z,6.90
2018-04-01T09:46:29.921Z,7.00
2018-04-01T09:48:57.725Z,7.30
2018-04-01T09:51:24.869Z,7.20
2018-04-01T09:53:55.365Z,7.60
2018-04-01T09:56:33.025Z,7.60
2018-04-01T09:59:00.060Z,7.70
2018-04-01T10:01:27.648Z,7.80
2018-04-01T10:03:55.905Z,7.70
2018-04-01T10:06:23.649Z,7.70
2018-04-01T10:08:51.857Z,7.80
2018-04-01T10:11:19.727Z,8.20
2018-04-01T10:13:48.270Z,8.50
2018-04-01T10:16:20.505Z,8.50
2018-04-01T10:18:52.113Z,8.60
2018-04-01T10:21:21.919Z,8.60
2018-04-01T10:23:51.675Z,8.60
2018-04-01T10:26:20.108Z,8.70
2018-04-01T10:28:52.107Z,8.90
2018-04-01T10:31:21.993Z,8.90
2018-04-01T10:33:52.344Z,8.90
2018-04-01T10:36:21.660Z,9.30
2018-04-01T10:38:49.960Z,9.40
2018-04-01T10:41:28.197Z,9.40
2018-04-01T10:43:55.701Z,9.60
2018-04-01T10:46:23.977Z,9.40
2018-04-01T10:48:52.016Z,9.40
2018-04-01T10:51:20.104Z,9.50
2018-04-01T10:53:56.020Z,9.60
2018-04-01T10:56:23.900Z,9.60
2018-04-01T10:58:52.908Z,9.40
2018-04-01T11:01:21.730Z,9.30
2018-04-01T11:03:59.703Z,9.50
2018-04-01T11:06:26.720Z,9.50
2018-04-01T11:08:55.108Z,9.70
2018-04-01T11:11:23.797Z,9.10
2018-04-01T11:13:51.651Z,9.10
2018-04-01T11:16:20.506Z,9.10
2018-04-01T11:18:58.890Z,8.90
2018-04-01T11:21:26.158Z,8.90
2018-04-01T11:23:54.386Z,8.90
2018-04-01T11:26:32.600Z,8.80
2018-04-01T11:29:00.099Z,8.80
2018-04-01T11:31:27.468Z,9.00
2018-04-01T11:34:05.261Z,9.30
2018-04-01T11:36:32.384Z,9.50
2018-04-01T11:39:01.376Z,10.00
2018-04-01T11:41:28.889Z,10.00
2018-04-01T11:43:56.032Z,10.30
2018-04-01T11:46:27.379Z,10.40
2018-04-01T11:48:55.906Z,10.80
2018-04-01T11:51:24.380Z,11.20
2018-04-01T11:53:52.557Z,11.20
2018-04-01T11:56:19.737Z,11.60
2018-04-01T11:58:47.506Z,11.70
2018-04-01T12:01:14.617Z,12.00
2018-04-01T12:03:43.275Z,12.10
2018-04-01T12:06:10.802Z,11.80
2018-04-01T12:08:37.885Z,12.20
2018-04-01T12:11:05.995Z,11.70
2018-04-01T12:13:33.001Z,11.60
2018-04-01T12:16:00.027Z,10.90
2018-04-01T12:18:27.037Z,10.70
2018-04-01T12:20:54.148Z,11.00
2018-04-01T12:23:23.598Z,11.80
2018-04-01T12:25:51.340Z,12.80
2018-04-01T12:28:28.313Z,12.90
2018-04-01T12:30:55.752Z,12.90
2018-04-01T12:33:23.501Z,13.20
2018-04-01T12:35:54.238Z,13.20
2018-04-01T12:38:24.783Z,13.00
2018-04-01T12:41:01.890Z,12.90
2018-04-01T12:43:28.995Z,12.80
2018-04-01T12:45:56.821Z,12.40
2018-04-01T12:48:23.963Z,12.40
2018-04-01T12:51:01.412Z,12.40
2018-04-01T12:53:28.421Z,12.10
2018-04-01T12:55:55.699Z,11.50
2018-04-01T12:58:22.914Z,11.10
2018-04-01T13:00:54.609Z,10.70
2018-04-01T13:03:33.622Z,10.60
2018-04-01T13:06:00.629Z,10.60
2018-04-01T13:08:28.005Z,10.60
2018-04-01T13:10:57.925Z,10.70
2018-04-01T13:13:25.192Z,10.60
2018-04-01T13:16:03.754Z,11.10
2018-04-01T13:18:30.794Z,11.50
2018-04-01T13:20:58.218Z,11.80
2018-04-01T13:23:37.004Z,11.80
2018-04-01T13:26:04.009Z,11.80
2018-04-01T13:28:31.798Z,11.10
2018-04-01T13:31:00.380Z,10.90
2018-04-01T13:33:28.195Z,10.80
2018-04-01T13:35:56.044Z,10.80
2018-04-01T13:38:24.209Z,10.60
2018-04-01T13:40:52.496Z,10.30
2018-04-01T13:43:21.504Z,10.10
2018-04-01T13:45:51.076Z,10.00
2018-04-01T13:48:18.521Z,10.00
2018-04-01T13:50:46.452Z,9.80
2018-04-01T13:53:13.909Z,9.60
2018-04-01T13:55:41.102Z,9.50
2018-04-01T13:58:08.136Z,9.30
2018-04-01T14:00:35.245Z,8.90
2018-04-01T14:03:03.025Z,8.60
2018-04-01T14:05:30.800Z,8.60
2018-04-01T14:07:58.638Z,8.70
2018-04-01T14:10:25.726Z,8.60
2018-04-01T14:12:55.812Z,8.70
2018-04-01T14:15:25.983Z,8.80
2018-04-01T14:17:53.826Z,9.00
2018-04-01T14:20:20.958Z,9.20
2018-04-01T14:22:47.994Z,9.30
2018-04-01T14:25:15.745Z,9.20
2018-04-01T14:27:43.274Z,8.90
2018-04-01T14:30:12.695Z,8.60
2018-04-01T14:32:39.979Z,8.30
2018-04-01T14:35:07.535Z,8.20
2018-04-01T14:37:38.926Z,8.20
2018-04-01T14:40:06.930Z,8.10
2018-04-01T14:42:34.972Z,7.80
2018-04-01T14:45:02.176Z,7.80
2018-04-01T14:47:30.211Z,7.70
2018-04-01T14:49:57.688Z,7.80
2018-04-01T14:52:24.709Z,7.70
2018-04-01T14:54:51.737Z,7.80
2018-04-01T14:57:18.733Z,8.00
2018-04-01T14:59:46.053Z,8.00
2018-04-01T15:02:13.990Z,8.00
2018-04-01T15:04:41.783Z,8.20
2018-04-01T15:07:08.837Z,8.20
2018-04-01T15:09:36.706Z,8.20
2018-04-01T15:12:04.609Z,8.20
2018-04-01T15:14:33.866Z,8.10
2018-04-01T15:17:12.081Z,8.00
2018-04-01T15:19:39.185Z,8.00
2018-04-01T15:22:06.949Z,8.00
2018-04-01T15:24:34.074Z,8.00
2018-04-01T15:27:01.767Z,8.00
2018-04-01T15:29:30.524Z,7.90
2018-04-01T15:32:00.988Z,7.50
2018-04-01T15:34:30.935Z,7.50
2018-04-01T15:37:00.932Z,7.40
2018-04-01T15:39:39.520Z,7.10
2018-04-01T15:42:07.480Z,7.20
2018-04-01T15:44:34.997Z,7.20
2018-04-01T15:47:12.340Z,7.20
2018-04-01T15:49:39.368Z,7.10
2018-04-01T15:52:06.709Z,7.10
2018-04-01T15:54:34.085Z,7.10
2018-04-01T15:57:01.492Z,7.10
2018-04-01T15:59:29.769Z,7.10
2018-04-01T16:01:57.752Z,7.10
2018-04-01T16:04:24.873Z,7.00
2018-04-01T16:06:52.082Z,6.90
2018-04-01T16:09:19.986Z,6.90
2018-04-01T16:11:47.066Z,6.80
2018-04-01T16:14:14.104Z,6.80
2018-04-01T16:16:41.110Z,6.90
2018-04-01T16:19:09.259Z,6.70
2018-04-01T16:21:36.795Z,6.70
2018-04-01T16:24:05.125Z,6.70
2018-04-01T16:26:32.465Z,6.60
2018-04-01T16:28:59.714Z,6.50
2018-04-01T16:31:26.745Z,6.50
2018-04-01T16:33:54.001Z,6.50
2018-04-01T16:36:21.102Z,6.40
2018-04-01T16:38:48.295Z,6.40
2018-04-01T16:41:16.921Z,6.30
2018-04-01T16:43:44.144Z,6.30
2018-04-01T16:46:15.205Z,6.30
2018-04-01T16:48:46.054Z,6.30
2018-04-01T16:51:24.423Z,6.40
2018-04-01T16:53:51.461Z,6.30
2018-04-01T16:56:19.193Z,6.40
2018-04-01T16:58:48.360Z,6.40
2018-04-01T17:01:16.621Z,6.40
2018-04-01T17:03:45.132Z,6.40
2018-04-01T17:06:12.639Z,6.40
2018-04-01T17:08:51.083Z,6.40
2018-04-01T17:11:18.977Z,6.50
2018-04-01T17:13:46.859Z,6.40
2018-04-01T17:16:16.341Z,6.50
2018-04-01T17:18:44.697Z,6.50
2018-04-01T17:21:13.783Z,6.50
2018-04-01T17:23:51.237Z,6.60
2018-04-01T17:26:18.918Z,6.60
2018-04-01T17:28:47.234Z,6.60
2018-04-01T17:31:14.615Z,6.70
2018-04-01T17:33:44.237Z,6.60
2018-04-01T17:36:16.376Z,6.70
2018-04-01T17:38:44.818Z,6.60
2018-04-01T17:41:13.080Z,6.70
2018-04-01T17:43:44.541Z,6.70
2018-04-01T17:46:14.794Z,6.70
2018-04-01T17:48:45.203Z,6.70
2018-04-01T17:51:14.583Z,6.70
2018-04-01T17:53:45.185Z,6.60
2018-04-01T17:56:13.313Z,6.60
2018-04-01T17:58:42.749Z,6.60
2018-04-01T18:01:12.872Z,6.60
2018-04-01T18:03:43.021Z,6.70
2018-04-01T18:06:12.313Z,6.70
2018-04-01T18:08:44.679Z,6.70
2018-04-01T18:11:24.481Z,6.70
2018-04-01T18:13:51.506Z,6.70
2018-04-01T18:16:18.669Z,6.70
2018-04-01T18:18:47.822Z,6.60
2018-04-01T18:21:20.328Z,6.60
2018-04-01T18:23:48.961Z,6.60
2018-04-01T18:26:16.650Z,6.60
2018-04-01T18:28:46.802Z,6.50
2018-04-01T18:31:16.230Z,6.50
2018-04-01T18:33:54.042Z,6.40
2018-04-01T18:36:25.294Z,6.40
2018-04-01T18:38:52.493Z,6.40
2018-04-01T18:41:19.746Z,6.40
2018-04-01T18:43:51.801Z,6.40
2018-04-01T18:46:19.248Z,6.40
2018-04-01T18:48:47.102Z,6.40
2018-04-01T18:51:15.168Z,6.40
2018-04-01T18:53:44.826Z,6.40
2018-04-01T18:56:13.453Z,6.40
2018-04-01T18:58:41.694Z,6.30
2018-04-01T19:01:09.762Z,6.30
2018-04-01T19:03:38.925Z,6.30
2018-04-01T19:06:06.113Z,6.30
2018-04-01T19:08:33.295Z,6.30
2018-04-01T19:11:00.410Z,6.30
2018-04-01T19:13:28.181Z,6.20
2018-04-01T19:15:55.248Z,6.20
2018-04-01T19:18:26.804Z,6.20
2018-04-01T19:20:54.496Z,6.20
2018-04-01T19:23:22.757Z,6.20
2018-04-01T19:25:50.541Z,6.20
2018-04-01T19:28:18.459Z,6.20
2018-04-01T19:30:47.428Z,6.30
2018-04-01T19:33:15.419Z,6.30
2018-04-01T19:35:46.152Z,6.40
2018-04-01T19:38:25.877Z,6.30
2018-04-01T19:40:53.442Z,6.40
2018-04-01T19:43:21.089Z,6.30
2018-04-01T19:45:49.040Z,6.30
2018-04-01T19:48:17.168Z,6.40
2018-04-01T19:50:46.623Z,6.30
2018-04-01T19:53:17.609Z,6.30
2018-04-01T19:55:46.951Z,6.30
2018-04-01T19:58:15.482Z,6.30
2018-04-01T20:00:45.632Z,6.30
2018-04-01T20:03:23.083Z,6.30
2018-04-01T20:05:51.861Z,6.30
2018-04-01T20:08:20.434Z,6.30
2018-04-01T20:10:58.489Z,6.30
2018-04-01T20:13:26.101Z,6.40
2018-04-01T20:15:54.370Z,6.30
2018-04-01T20:18:21.961Z,6.30
2018-04-01T20:20:51.237Z,6.30
2018-04-01T20:23:19.705Z,6.30
2018-04-01T20:25:57.675Z,6.30
2018-04-01T20:28:25.697Z,6.30
2018-04-01T20:30:53.194Z,6.30
2018-04-01T20:33:22.619Z,6.40
2018-04-01T20:35:50.364Z,6.40
2018-04-01T20:38:19.222Z,6.30
2018-04-01T20:40:46.965Z,6.30
2018-04-01T20:43:15.390Z,6.40
2018-04-01T20:45:54.716Z,6.30
2018-04-01T20:48:23.094Z,6.30
2018-04-01T20:50:51.770Z,6.40
2018-04-01T20:53:21.394Z,6.40
2018-04-01T20:55:50.886Z,6.40
2018-04-01T20:58:20.638Z,6.40
2018-04-01T21:00:48.319Z,6.40
2018-04-01T21:03:26.193Z,6.40
2018-04-01T21:05:53.697Z,6.40
2018-04-01T21:08:21.221Z,6.30
2018-04-01T21:10:48.812Z,6.30
2018-04-01T21:13:18.607Z,6.30
2018-04-01T21:15:46.812Z,6.20
2018-04-01T21:18:16.932Z,6.20
2018-04-01T21:20:46.918Z,6.10
2018-04-01T21:23:15.998Z,6.10
2018-04-01T21:25:45.200Z,6.10
2018-04-01T21:28:16.147Z,6.10
2018-04-01T21:30:50.862Z,6.00
2018-04-01T21:33:19.437Z,6.00
2018-04-01T21:35:47.458Z,5.90
2018-04-01T21:38:17.143Z,5.90
2018-04-01T21:40:56.469Z,5.80
2018-04-01T21:43:23.994Z,5.90
2018-04-01T21:45:51.490Z,5.80
2018-04-01T21:48:19.790Z,5.60
2018-04-01T21:50:49.817Z,5.50
2018-04-01T21:53:18.161Z,5.40
2018-04-01T21:55:46.532Z,5.40
2018-04-01T21:58:15.686Z,5.30
2018-04-01T22:00:47.829Z,5.20
2018-04-01T22:03:20.027Z,5.00
2018-04-01T22:05:49.673Z,4.90
2018-04-01T22:08:19.485Z,4.80
2018-04-01T22:10:47.659Z,4.80
2018-04-01T22:13:18.939Z,4.70
2018-04-01T22:15:48.175Z,4.70
2018-04-01T22:18:18.434Z,4.70
2018-04-01T22:20:47.248Z,4.60
2018-04-01T22:23:17.078Z,4.60
2018-04-01T22:25:46.559Z,4.50
2018-04-01T22:28:17.174Z,4.40
2018-04-01T22:30:46.933Z,4.10
2018-04-01T22:33:26.856Z,4.00
2018-04-01T22:35:54.470Z,4.00
2018-04-01T22:38:22.853Z,3.80
2018-04-01T22:40:50.642Z,3.80
2018-04-01T22:43:20.530Z,3.50
2018-04-01T22:45:49.259Z,3.50
2018-04-01T22:48:18.288Z,3.30
2018-04-01T22:50:48.266Z,3.30
2018-04-01T22:53:18.431Z,3.30
2018-04-01T22:55:46.739Z,3.20
2018-04-01T22:58:16.588Z,3.20
2018-04-01T23:00:46.442Z,3.10
2018-04-01T23:03:18.053Z,3.10
2018-04-01T23:05:46.092Z,3.10
2018-04-01T23:08:16.248Z,3.00
2018-04-01T23:10:47.621Z,3.00
2018-04-01T23:13:15.800Z,2.90
2018-04-01T23:15:44.088Z,2.90
2018-04-01T23:18:12.704Z,2.90
2018-04-01T23:20:42.616Z,2.80
2018-04-01T23:23:11.095Z,2.80
2018-04-01T23:25:39.561Z,2.80
2018-04-01T23:28:14.654Z,2.70
2018-04-01T23:30:44.474Z,2.70
2018-04-01T23:33:13.444Z,2.70
2018-04-01T23:35:44.097Z,2.70
2018-04-01T23:38:12.647Z,2.70
2018-04-01T23:40:42.051Z,2.70
2018-04-01T23:43:11.240Z,2.60
2018-04-01T23:45:50.597Z,2.70
2018-04-01T23:48:18.874Z,2.60
2018-04-01T23:50:47.178Z,2.60
2018-04-01T23:53:14.703Z,2.60
2018-04-01T23:55:43.149Z,2.70
2018-04-01T23:58:13.088Z,2.70
